createdAt,value
2019-06-01T00:02:18.082Z,44.33
2019-06-01T00:04:49.876Z,44.23
2019-06-01T00:07:21.589Z,43.60
2019-06-01T00:09:53.285Z,43.37
2019-06-01T00:12:25.005Z,42.20
2019-06-01T00:14:56.718Z,43.50
2019-06-01T00:17:28.442Z,44.30
2019-06-01T00:20:00.139Z,44.03
2019-06-01T00:22:31.956Z,46.80
2019-06-01T00:25:04.087Z,44.87
2019-06-01T00:27:35.799Z,44.80
2019-06-01T00:30:07.713Z,41.90
2019-06-01T00:32:39.429Z,43.13
2019-06-01T00:35:11.119Z,43.97
2019-06-01T00:37:43.433Z,43.73
2019-06-01T00:40:15.445Z,45.10
2019-06-01T00:42:48.301Z,39.40
2019-06-01T00:45:20.285Z,43.83
2019-06-01T00:47:53.013Z,45.67
2019-06-01T00:50:24.930Z,44.87
2019-06-01T00:52:56.725Z,43.13
2019-06-01T00:55:28.440Z,42.83
2019-06-01T00:58:00.175Z,44.10
2019-06-01T01:00:43.121Z,41.73
2019-06-01T01:03:05.590Z,46.13
2019-06-01T01:05:37.293Z,44.77
2019-06-01T01:08:09.002Z,43.57
2019-06-01T01:10:40.704Z,43.27
2019-06-01T01:13:15.612Z,46.03
2019-06-01T01:15:47.376Z,46.70
2019-06-01T01:18:19.192Z,48.23
2019-06-01T01:20:51.960Z,47.33
2019-06-01T01:23:23.901Z,48.10
2019-06-01T01:25:56.589Z,45.70
2019-06-01T01:28:28.516Z,47.47
2019-06-01T01:31:12.511Z,48.30
2019-06-01T01:33:33.852Z,48.53
2019-06-01T01:36:05.548Z,47.40
2019-06-01T01:38:37.301Z,50.30
2019-06-01T01:41:09.245Z,50.20
2019-06-01T01:43:40.950Z,48.03
2019-06-01T01:46:12.646Z,49.73
2019-06-01T01:48:44.357Z,50.30
2019-06-01T01:51:16.058Z,49.97
2019-06-01T01:53:47.766Z,48.03
2019-06-01T01:56:19.456Z,48.83
2019-06-01T01:58:52.299Z,50.33
2019-06-01T02:01:24.086Z,48.87
2019-06-01T02:03:57.272Z,48.43
2019-06-01T02:06:29.568Z,50.33
2019-06-01T02:09:01.833Z,49.23
2019-06-01T02:11:35.088Z,49.47
2019-06-01T02:14:06.982Z,49.27
2019-06-01T02:16:38.680Z,48.70
2019-06-01T02:19:10.537Z,49.80
2019-06-01T02:21:42.322Z,53.10
2019-06-01T02:24:14.049Z,52.27
2019-06-01T02:26:45.765Z,49.53
2019-06-01T02:29:17.480Z,50.03
2019-06-01T02:31:49.285Z,51.20
2019-06-01T02:34:21.100Z,53.90
2019-06-01T02:36:54.335Z,51.33
2019-06-01T02:39:26.326Z,51.90
2019-06-01T02:41:59.119Z,50.00
2019-06-01T02:44:30.940Z,50.00
2019-06-01T02:47:04.030Z,52.30
2019-06-01T02:49:36.781Z,49.67
2019-06-01T02:52:08.682Z,51.33
2019-06-01T02:54:40.499Z,48.87
2019-06-01T02:57:12.309Z,54.30
2019-06-01T02:59:44.017Z,54.40
2019-06-01T03:02:15.904Z,52.67
2019-06-01T03:04:47.824Z,53.47
2019-06-01T03:07:19.732Z,54.77
2019-06-01T03:09:53.258Z,54.90
2019-06-01T03:12:28.372Z,54.37
2019-06-01T03:15:02.695Z,55.87
2019-06-01T03:17:37.596Z,54.07
2019-06-01T03:20:09.409Z,56.13
2019-06-01T03:22:41.520Z,56.63
2019-06-01T03:25:14.169Z,55.53
2019-06-01T03:27:48.256Z,59.27
2019-06-01T03:30:34.611Z,58.97
2019-06-01T03:33:08.615Z,58.93
2019-06-01T03:35:40.004Z,58.40
2019-06-01T03:38:11.797Z,59.10
2019-06-01T03:40:43.536Z,59.20
2019-06-01T03:43:15.954Z,58.17
2019-06-01T03:45:47.849Z,58.20
2019-06-01T03:48:19.554Z,57.73
2019-06-01T03:50:51.266Z,57.17
2019-06-01T03:53:23.088Z,55.47
2019-06-01T03:55:54.814Z,56.90
2019-06-01T03:58:26.632Z,55.87
2019-06-01T04:00:58.384Z,58.60
2019-06-01T04:03:30.173Z,55.33
2019-06-01T04:06:03.242Z,51.30
2019-06-01T04:08:35.092Z,48.13
2019-06-01T04:11:07.775Z,47.40
2019-06-01T04:13:39.543Z,45.67
2019-06-01T04:16:12.075Z,44.27
2019-06-01T04:18:43.952Z,42.87
2019-06-01T04:21:15.656Z,43.20
2019-06-01T04:23:47.360Z,43.03
2019-06-01T04:26:19.067Z,45.47
2019-06-01T04:28:50.865Z,46.10
2019-06-01T04:31:22.684Z,45.83
2019-06-01T04:33:54.414Z,42.57
2019-06-01T04:36:26.129Z,39.77
2019-06-01T04:38:57.945Z,40.40
2019-06-01T04:41:29.853Z,39.93
2019-06-01T04:44:01.596Z,37.90
2019-06-01T04:46:33.335Z,35.87
2019-06-01T04:49:06.430Z,35.07
2019-06-01T04:51:38.247Z,33.30
2019-06-01T04:54:11.541Z,32.73
2019-06-01T04:56:43.772Z,33.07
2019-06-01T04:59:15.565Z,32.20
2019-06-01T05:01:47.328Z,32.47
2019-06-01T05:04:19.037Z,33.23
2019-06-01T05:06:50.840Z,32.10
2019-06-01T05:09:22.552Z,32.53
2019-06-01T05:11:54.285Z,30.63
2019-06-01T05:14:26.092Z,31.50
2019-06-01T05:16:57.932Z,31.87
2019-06-01T05:19:29.628Z,32.00
2019-06-01T05:22:01.347Z,31.60
2019-06-01T05:24:33.032Z,30.43
2019-06-01T05:27:04.752Z,31.33
2019-06-01T05:29:36.518Z,28.83
2019-06-01T05:32:08.418Z,30.80
2019-06-01T05:34:40.265Z,31.57
2019-06-01T05:37:12.336Z,30.53
2019-06-01T05:39:44.279Z,32.70
2019-06-01T05:42:16.946Z,31.80
2019-06-01T05:44:48.772Z,30.40
2019-06-01T05:47:20.491Z,29.40
2019-06-01T05:49:52.195Z,29.53
2019-06-01T05:52:23.989Z,29.13
2019-06-01T05:54:55.701Z,28.20
2019-06-01T05:57:27.411Z,28.93
2019-06-01T05:59:59.209Z,24.57
2019-06-01T06:02:30.938Z,26.00
2019-06-01T06:05:04.080Z,26.00
2019-06-01T06:07:36.000Z,25.60
2019-06-01T06:10:08.401Z,26.60
2019-06-01T06:12:40.218Z,25.77
2019-06-01T06:15:13.471Z,27.37
2019-06-01T06:17:45.461Z,23.13
2019-06-01T06:20:18.028Z,26.10
2019-06-01T06:22:49.778Z,23.13
2019-06-01T06:25:21.477Z,24.33
2019-06-01T06:27:53.197Z,20.23
2019-06-01T06:30:24.904Z,20.93
2019-06-01T06:32:56.711Z,20.37
2019-06-01T06:35:28.508Z,19.53
2019-06-01T06:38:00.239Z,19.57
2019-06-01T06:40:31.968Z,20.90
2019-06-01T06:43:16.611Z,17.37
2019-06-01T06:45:37.486Z,17.65
2019-06-01T06:48:09.213Z,16.65
2019-06-01T06:50:40.918Z,17.60
2019-06-01T06:53:24.521Z,16.02
2019-06-01T06:55:46.337Z,15.70
2019-06-01T06:58:18.787Z,14.65
2019-06-01T07:00:50.793Z,14.58
2019-06-01T07:03:23.086Z,12.90
2019-06-01T07:05:55.021Z,12.37
2019-06-01T07:08:27.960Z,12.60
2019-06-01T07:10:59.960Z,11.75
2019-06-01T07:13:31.696Z,11.35
2019-06-01T07:16:04.031Z,11.25
2019-06-01T07:18:36.668Z,11.97
2019-06-01T07:21:08.588Z,11.08
2019-06-01T07:23:40.419Z,10.32
2019-06-01T07:26:12.227Z,10.10
2019-06-01T07:28:44.653Z,9.53
2019-06-01T07:31:16.679Z,10.90
2019-06-01T07:33:48.505Z,11.08
2019-06-01T07:36:20.299Z,11.80
2019-06-01T07:38:52.138Z,12.30
2019-06-01T07:41:24.681Z,12.18
2019-06-01T07:43:56.573Z,18.30
2019-06-01T07:46:29.016Z,10.65
2019-06-01T07:49:01.240Z,9.70
2019-06-01T07:51:32.972Z,8.60
2019-06-01T07:54:04.800Z,8.53
2019-06-01T07:56:36.633Z,10.45
2019-06-01T07:59:08.469Z,10.60
2019-06-01T08:01:40.185Z,10.38
2019-06-01T08:04:11.926Z,11.35
2019-06-01T08:06:47.345Z,7.20
2019-06-01T08:09:17.275Z,7.70
2019-06-01T08:11:49.017Z,7.33
2019-06-01T08:14:20.819Z,7.53
2019-06-01T08:16:52.643Z,6.83
2019-06-01T08:19:25.849Z,6.00
2019-06-01T08:21:57.787Z,6.42
2019-06-01T08:24:30.294Z,6.85
2019-06-01T08:27:02.311Z,6.10
2019-06-01T08:29:34.131Z,7.33
2019-06-01T08:32:05.848Z,6.58
2019-06-01T08:34:37.593Z,9.90
2019-06-01T08:37:09.484Z,9.13
2019-06-01T08:39:41.231Z,7.83
2019-06-01T08:42:13.013Z,6.62
2019-06-01T08:44:44.729Z,6.33
2019-06-01T08:47:16.441Z,6.60
2019-06-01T08:49:48.185Z,6.40
2019-06-01T08:52:19.906Z,6.45
2019-06-01T08:54:51.649Z,10.75
2019-06-01T08:57:24.198Z,7.45
2019-06-01T08:59:56.118Z,6.40
2019-06-01T09:02:29.043Z,6.17
2019-06-01T09:05:00.960Z,5.62
2019-06-01T09:07:33.203Z,5.20
2019-06-01T09:10:06.165Z,6.87
2019-06-01T09:12:38.089Z,5.78
2019-06-01T09:15:10.221Z,6.30
2019-06-01T09:17:41.934Z,5.87
2019-06-01T09:20:14.672Z,5.83
2019-06-01T09:22:48.137Z,6.10
2019-06-01T09:25:20.125Z,5.37
2019-06-01T09:27:51.939Z,6.12
2019-06-01T09:30:23.880Z,5.35
2019-06-01T09:32:55.606Z,5.15
2019-06-01T09:35:45.953Z,4.35
2019-06-01T09:38:00.969Z,7.83
2019-06-01T09:40:33.547Z,5.95
2019-06-01T09:43:06.654Z,6.22
2019-06-01T09:45:38.475Z,4.80
2019-06-01T09:48:10.197Z,4.55
2019-06-01T09:50:42.016Z,4.12
2019-06-01T09:53:13.729Z,4.28
2019-06-01T09:55:45.586Z,4.45
2019-06-01T09:58:17.390Z,4.78
2019-06-01T10:00:49.115Z,4.85
2019-06-01T10:03:20.933Z,4.33
2019-06-01T10:06:01.837Z,4.42
2019-06-01T10:08:26.261Z,4.45
2019-06-01T10:10:58.216Z,4.92
2019-06-01T10:13:30.441Z,4.43
2019-06-01T10:16:02.778Z,4.40
2019-06-01T10:18:35.334Z,3.87
2019-06-01T10:21:07.596Z,3.60
2019-06-01T10:23:39.322Z,3.70
2019-06-01T10:26:11.045Z,4.80
2019-06-01T10:28:42.814Z,4.17
2019-06-01T10:31:14.640Z,3.95
2019-06-01T10:33:46.343Z,3.47
2019-06-01T10:36:21.117Z,3.37
2019-06-01T10:38:51.897Z,3.25
2019-06-01T10:41:23.624Z,4.33
2019-06-01T10:43:55.368Z,3.60
2019-06-01T10:46:27.148Z,3.90
2019-06-01T10:48:58.881Z,4.90
2019-06-01T10:51:31.937Z,3.35
2019-06-01T10:54:04.021Z,3.95
2019-06-01T10:56:36.250Z,3.40
2019-06-01T10:59:08.138Z,3.10
2019-06-01T11:01:40.883Z,2.52
2019-06-01T11:04:13.082Z,3.95
2019-06-01T11:06:48.574Z,2.95
2019-06-01T11:09:18.475Z,4.65
2019-06-01T11:11:50.297Z,4.00
2019-06-01T11:14:21.998Z,2.65
2019-06-01T11:16:56.444Z,2.85
2019-06-01T11:19:27.421Z,3.50
2019-06-01T11:21:59.133Z,3.12
2019-06-01T11:24:30.841Z,3.70
2019-06-01T11:27:02.653Z,3.83
2019-06-01T11:29:38.836Z,3.25
2019-06-01T11:32:07.987Z,4.12
2019-06-01T11:34:40.302Z,3.35
2019-06-01T11:37:15.315Z,2.52
2019-06-01T11:39:45.722Z,2.45
2019-06-01T11:42:20.002Z,2.08
2019-06-01T11:44:51.125Z,2.95
2019-06-01T11:47:22.837Z,2.60
2019-06-01T11:49:54.638Z,2.90
2019-06-01T11:52:26.450Z,2.92
2019-06-01T11:54:58.160Z,3.80
2019-06-01T11:57:29.971Z,3.12
2019-06-01T12:00:01.845Z,5.10
2019-06-01T12:02:33.656Z,4.67
2019-06-01T12:05:06.270Z,3.47
2019-06-01T12:07:38.088Z,2.27
2019-06-01T12:10:11.208Z,2.92
2019-06-01T12:12:44.183Z,2.45
2019-06-01T12:15:17.113Z,2.55
2019-06-01T12:17:48.836Z,2.37
2019-06-01T12:20:20.832Z,2.33
2019-06-01T12:22:52.528Z,2.37
2019-06-01T12:25:24.217Z,2.67
2019-06-01T12:27:55.945Z,2.83
2019-06-01T12:30:27.658Z,2.27
2019-06-01T12:32:59.368Z,2.47
2019-06-01T12:35:31.070Z,2.10
2019-06-01T12:38:06.912Z,1.92
2019-06-01T12:40:36.628Z,2.20
2019-06-01T12:43:08.331Z,1.98
2019-06-01T12:45:40.034Z,2.20
2019-06-01T12:48:11.786Z,2.05
2019-06-01T12:50:47.841Z,2.10
2019-06-01T12:53:17.304Z,2.10
2019-06-01T12:55:49.012Z,2.35
2019-06-01T12:58:20.860Z,2.25
2019-06-01T13:00:52.646Z,2.08
2019-06-01T13:03:24.455Z,2.02
2019-06-01T13:05:56.157Z,2.30
2019-06-01T13:08:27.877Z,2.25
2019-06-01T13:10:59.592Z,2.40
2019-06-01T13:13:31.300Z,2.20
2019-06-01T13:16:03.129Z,2.62
2019-06-01T13:18:35.049Z,2.33
2019-06-01T13:21:06.749Z,2.25
2019-06-01T13:23:38.475Z,2.17
2019-06-01T13:26:10.375Z,2.40
2019-06-01T13:28:42.089Z,1.80
2019-06-01T13:31:13.798Z,1.80
2019-06-01T13:33:46.474Z,1.55
2019-06-01T13:36:18.308Z,3.30
2019-06-01T13:38:50.861Z,2.10
2019-06-01T13:41:22.764Z,2.05
2019-06-01T13:43:54.515Z,1.50
2019-06-01T13:46:26.220Z,1.67
2019-06-01T13:48:57.933Z,1.37
2019-06-01T13:51:29.641Z,1.47
2019-06-01T13:54:01.356Z,2.10
2019-06-01T13:56:33.072Z,1.80
2019-06-01T13:59:04.984Z,1.80
2019-06-01T14:01:36.691Z,1.60
2019-06-01T14:04:08.422Z,1.55
2019-06-01T14:06:40.218Z,1.60
2019-06-01T14:09:12.030Z,1.80
2019-06-01T14:11:45.201Z,1.85
2019-06-01T14:14:17.190Z,2.15
2019-06-01T14:16:49.487Z,1.85
2019-06-01T14:19:21.649Z,1.70
2019-06-01T14:21:54.199Z,1.50
2019-06-01T14:24:26.174Z,1.90
2019-06-01T14:26:57.880Z,1.90
2019-06-01T14:29:29.608Z,1.72
2019-06-01T14:32:01.433Z,1.90
2019-06-01T14:34:33.278Z,1.90
2019-06-01T14:37:05.077Z,1.87
2019-06-01T14:39:36.814Z,2.02
2019-06-01T14:42:08.612Z,1.95
2019-06-01T14:44:40.321Z,2.00
2019-06-01T14:47:12.030Z,2.00
2019-06-01T14:49:43.840Z,1.60
2019-06-01T14:52:15.540Z,2.10
2019-06-01T14:54:47.624Z,2.08
2019-06-01T14:57:19.477Z,2.33
2019-06-01T14:59:51.972Z,2.15
2019-06-01T15:02:23.722Z,1.50
2019-06-01T15:04:56.456Z,1.82
2019-06-01T15:07:28.344Z,3.47
2019-06-01T15:10:00.052Z,3.52
2019-06-01T15:12:31.748Z,3.12
2019-06-01T15:15:04.861Z,1.95
2019-06-01T15:17:36.664Z,2.77
2019-06-01T15:20:08.828Z,2.52
2019-06-01T15:22:40.538Z,1.80
2019-06-01T15:25:12.864Z,2.35
2019-06-01T15:27:44.585Z,2.10
2019-06-01T15:30:17.106Z,2.33
2019-06-01T15:32:49.982Z,2.20
2019-06-01T15:35:21.925Z,2.35
2019-06-01T15:37:58.330Z,2.20
2019-06-01T15:40:27.248Z,2.02
2019-06-01T15:42:59.456Z,2.55
2019-06-01T15:45:31.339Z,2.67
2019-06-01T15:48:03.351Z,2.10
2019-06-01T15:50:35.168Z,1.77
2019-06-01T15:53:06.881Z,1.95
2019-06-01T15:55:38.637Z,1.92
2019-06-01T15:58:10.448Z,2.35
2019-06-01T16:00:42.276Z,2.40
2019-06-01T16:03:13.976Z,1.70
2019-06-01T16:05:45.704Z,2.12
2019-06-01T16:08:17.497Z,1.87
2019-06-01T16:10:49.346Z,2.70
2019-06-01T16:13:21.040Z,1.95
2019-06-01T16:15:53.311Z,2.05
2019-06-01T16:18:25.077Z,2.05
2019-06-01T16:20:57.825Z,2.08
2019-06-01T16:23:29.713Z,2.70
2019-06-01T16:26:09.492Z,1.87
2019-06-01T16:28:35.096Z,1.60
2019-06-01T16:31:07.020Z,1.85
2019-06-01T16:33:38.705Z,1.80
2019-06-01T16:36:10.425Z,2.12
2019-06-01T16:38:42.131Z,1.98
2019-06-01T16:41:14.160Z,1.77
2019-06-01T16:43:45.864Z,2.20
2019-06-01T16:46:17.612Z,2.80
2019-06-01T16:48:49.309Z,1.75
2019-06-01T16:51:21.035Z,2.40
2019-06-01T16:53:52.739Z,2.10
2019-06-01T16:56:24.463Z,2.20
2019-06-01T16:58:56.191Z,2.20
2019-06-01T17:01:28.005Z,1.60
2019-06-01T17:04:00.558Z,1.95
2019-06-01T17:06:32.861Z,2.20
2019-06-01T17:09:05.304Z,2.50
2019-06-01T17:11:37.220Z,2.52
2019-06-01T17:14:09.224Z,2.45
2019-06-01T17:16:40.944Z,2.50
2019-06-01T17:19:12.743Z,2.35
2019-06-01T17:21:44.547Z,2.12
2019-06-01T17:24:16.261Z,2.25
2019-06-01T17:26:47.985Z,3.00
2019-06-01T17:29:19.713Z,3.00
2019-06-01T17:31:54.353Z,3.12
2019-06-01T17:34:25.035Z,3.10
2019-06-01T17:36:56.828Z,3.58
2019-06-01T17:39:28.524Z,9.38
2019-06-01T17:42:00.373Z,3.27
2019-06-01T17:44:32.154Z,2.37
2019-06-01T17:47:04.601Z,2.47
2019-06-01T17:49:36.438Z,2.42
2019-06-01T17:52:08.229Z,2.95
2019-06-01T17:54:39.956Z,2.77
2019-06-01T17:57:11.693Z,3.42
2019-06-01T17:59:43.580Z,8.23
2019-06-01T18:02:15.507Z,6.17
2019-06-01T18:04:47.315Z,7.05
2019-06-01T18:07:19.025Z,4.95
2019-06-01T18:09:50.716Z,3.75
2019-06-01T18:12:22.431Z,5.28
2019-06-01T18:14:54.151Z,5.47
2019-06-01T18:17:25.963Z,5.75
2019-06-01T18:19:57.661Z,7.20
2019-06-01T18:22:29.494Z,5.55
2019-06-01T18:25:02.466Z,6.72
2019-06-01T18:27:34.602Z,4.40
2019-06-01T18:30:07.090Z,4.62
2019-06-01T18:32:38.831Z,5.00
2019-06-01T18:35:11.395Z,4.70
2019-06-01T18:37:43.257Z,4.58
2019-06-01T18:40:17.309Z,4.92
2019-06-01T18:42:53.763Z,6.53
2019-06-01T18:45:25.777Z,10.50
2019-06-01T18:47:57.708Z,8.73
2019-06-01T18:50:29.553Z,5.90
2019-06-01T18:53:01.518Z,6.17
2019-06-01T18:55:35.531Z,5.25
2019-06-01T18:58:08.147Z,6.27
2019-06-01T19:00:40.650Z,8.80
2019-06-01T19:03:13.672Z,8.43
2019-06-01T19:05:46.112Z,8.37
2019-06-01T19:08:18.025Z,6.77
2019-06-01T19:10:50.201Z,5.43
2019-06-01T19:13:22.204Z,4.87
2019-06-01T19:15:53.999Z,4.70
2019-06-01T19:18:25.747Z,4.60
2019-06-01T19:20:57.458Z,4.67
2019-06-01T19:23:29.282Z,4.50
2019-06-01T19:26:00.994Z,4.63
2019-06-01T19:28:32.735Z,7.27
2019-06-01T19:31:04.743Z,36.43
2019-06-01T19:33:36.739Z,26.77
2019-06-01T19:36:08.926Z,19.50
2019-06-01T19:38:42.668Z,8.80
2019-06-01T19:41:15.465Z,7.43
2019-06-01T19:43:47.463Z,9.83
2019-06-01T19:46:19.301Z,9.97
2019-06-01T19:48:51.145Z,10.73
2019-06-01T19:51:22.935Z,5.27
2019-06-01T19:53:54.692Z,5.87
2019-06-01T19:56:26.531Z,5.63
2019-06-01T19:58:58.388Z,6.97
2019-06-01T20:01:30.134Z,10.47
2019-06-01T20:04:01.888Z,8.20
2019-06-01T20:06:33.621Z,17.40
2019-06-01T20:09:06.112Z,23.83
2019-06-01T20:11:37.942Z,40.67
2019-06-01T20:14:10.224Z,42.30
2019-06-01T20:16:42.009Z,57.07
2019-06-01T20:19:13.761Z,64.83
2019-06-01T20:21:45.729Z,79.57
2019-06-01T20:24:17.569Z,80.53
2019-06-01T20:26:49.703Z,81.03
2019-06-01T20:29:21.834Z,72.50
2019-06-01T20:31:53.646Z,65.20
2019-06-01T20:34:25.482Z,43.40
2019-06-01T20:36:57.328Z,43.23
2019-06-01T20:39:29.217Z,28.13
2019-06-01T20:42:17.251Z,21.23
2019-06-01T20:44:34.666Z,19.80
2019-06-01T20:47:06.562Z,19.40
2019-06-01T20:49:38.304Z,31.23
2019-06-01T20:52:10.019Z,30.13
2019-06-01T20:54:41.765Z,26.77
2019-06-01T20:57:13.584Z,15.47
2019-06-01T20:59:45.441Z,13.47
2019-06-01T21:02:17.872Z,12.07
2019-06-01T21:04:49.784Z,14.13
2019-06-01T21:07:21.945Z,9.97
2019-06-01T21:09:53.827Z,8.90
2019-06-01T21:12:43.916Z,7.03
2019-06-01T21:14:59.342Z,6.60
2019-06-01T21:17:31.110Z,6.30
2019-06-01T21:20:04.871Z,5.23
2019-06-01T21:22:36.756Z,5.90
2019-06-01T21:25:08.596Z,6.30
2019-06-01T21:27:40.295Z,5.10
2019-06-01T21:30:12.652Z,6.50
2019-06-01T21:32:44.495Z,6.10
2019-06-01T21:35:17.216Z,6.20
2019-06-01T21:37:49.325Z,7.17
2019-06-01T21:40:21.512Z,6.47
2019-06-01T21:43:03.042Z,6.03
2019-06-01T21:45:26.977Z,6.30
2019-06-01T21:47:58.691Z,6.77
2019-06-01T21:50:30.419Z,6.13
2019-06-01T21:53:02.121Z,7.13
2019-06-01T21:55:33.934Z,7.27
2019-06-01T21:58:05.631Z,19.40
2019-06-01T22:00:38.368Z,36.10
2019-06-01T22:03:10.278Z,47.37
2019-06-01T22:05:42.101Z,25.97
2019-06-01T22:08:13.832Z,13.03
2019-06-01T22:10:45.557Z,11.57
2019-06-01T22:13:20.254Z,9.43
2019-06-01T22:15:50.894Z,18.33
2019-06-01T22:18:23.760Z,32.43
2019-06-01T22:20:55.573Z,66.93
2019-06-01T22:23:28.207Z,95.70
2019-06-01T22:26:00.268Z,96.17
2019-06-01T22:28:31.969Z,119.53
2019-06-01T22:31:03.804Z,122.17
2019-06-01T22:33:35.517Z,110.88
2019-06-01T22:36:07.224Z,60.00
2019-06-01T22:38:38.928Z,42.43
2019-06-01T22:41:10.658Z,39.70
2019-06-01T22:43:46.835Z,29.30
2019-06-01T22:46:16.085Z,26.27
2019-06-01T22:48:47.886Z,23.77
2019-06-01T22:51:20.797Z,21.20
2019-06-01T22:53:52.619Z,21.67
2019-06-01T22:56:25.220Z,20.83
2019-06-01T22:58:56.972Z,18.90
2019-06-01T23:01:28.914Z,17.53
2019-06-01T23:04:00.683Z,17.57
2019-06-01T23:06:32.396Z,16.83
2019-06-01T23:09:06.824Z,18.93
2019-06-01T23:11:38.547Z,17.17
2019-06-01T23:14:10.255Z,15.77
2019-06-01T23:16:41.960Z,15.77
2019-06-01T23:19:13.772Z,16.70
2019-06-01T23:21:45.689Z,15.53
2019-06-01T23:24:17.391Z,20.10
2019-06-01T23:26:49.111Z,19.57
2019-06-01T23:29:22.194Z,17.20
2019-06-01T23:31:54.153Z,15.90
2019-06-01T23:34:26.632Z,14.07
2019-06-01T23:36:59.121Z,14.33
2019-06-01T23:39:30.881Z,13.80
2019-06-01T23:42:02.753Z,14.70
2019-06-01T23:44:35.145Z,14.30
2019-06-01T23:47:07.148Z,16.00
2019-06-01T23:49:38.957Z,14.07
2019-06-01T23:52:10.769Z,14.90
2019-06-01T23:54:42.576Z,14.90
2019-06-01T23:57:14.285Z,14.63
2019-06-01T23:59:45.979Z,14.80
